Un Pendik — TCOD2 — position and weather

sailwx.info

Track history (hours):
 
Tides and Currents Weather Stations Pressure Air Temp Water Temp Dewpoint Dewpoint Depression Visibility Wind Speed Wind Dir Waves Ship Positions

Un Pendik

Last reported at 2017-Jun-29 15:05 UTC. Time now 2017-Jun-29 16:02 UTC.
Position N 36°35' E 021°16'.

Length 193 m; draft 6.4 m.

Type: Ship (hazmat cat A). MMSI: 271000792.

Date/timePositionNaut miles runAvg speedWind from/ knotsBaromVisibWave heightAir tempDewpointWater temp
2017-Jun-29 15:05N 36°35' E 021°16'119.5
2017-Jun-29 15:00N 36°35' E 021°14'2019.5
2017-Jun-29 14:00N 36°40' E 020°51'1019.4
2017-Jun-29 13:30N 36°43' E 020°39'917.6
2017-Jun-29 13:00N 36°47' E 020°29'1013.1
2017-Jun-29 12:14N 36°50' E 020°17'519.7
2017-Jun-29 12:00N 36°51' E 020°12'1020.1
2017-Jun-29 11:30N 36°54' E 019°60'1919.9
2017-Jun-29 10:33N 36°59' E 019°37'119.9
2017-Jun-29 10:30N 36°59' E 019°36'1019.8
2017-Jun-29 09:59N 37°02' E 019°23'1019.7
2017-Jun-29 09:29N 37°05' E 019°11'1519.8
2017-Jun-29 08:44N 37°09' E 018°53'519.7
2017-Jun-29 08:30N 37°10' E 018°48'1419.7
2017-Jun-29 07:47N 37°14' E 018°31'619.6
2017-Jun-29 07:30N 37°15' E 018°24'3719.5
2017-Jun-29 05:37N 37°25' E 017°40'219.5
2017-Jun-29 05:30N 37°26' E 017°37'1319.6
2017-Jun-29 04:50N 37°30' E 017°21'6419.8
2017-Jun-29 01:37N 37°47' E 016°04'219.4
2017-Jun-29 01:30N 37°48' E 016°01'1019.1
2017-Jun-29 01:00N 37°51' E 015°50'1018.5
2017-Jun-29 00:29N 37°56' E 015°40'918.5
2017-Jun-29 00:00N 38°04' E 015°35'917.6
2017-Jun-28 23:30N 38°13' E 015°36'713.6
2017-Jun-28 23:00N 38°19' E 015°39'1019.2
2017-Jun-28 22:30N 38°26' E 015°30'1019.8
2017-Jun-28 22:00N 38°32' E 015°21'1019.6
2017-Jun-28 21:30N 38°39' E 015°11'1019.4
2017-Jun-28 21:00N 38°44' E 015°01'1019.7
2017-Jun-28 20:30N 38°50' E 014°50'1019.9
2017-Jun-28 20:00N 38°54' E 014°40'6419.4
2017-Jun-28 16:42N 39°28' E 013°29'419.1
2017-Jun-28 16:30N 39°30' E 013°25'1019.0
2017-Jun-28 15:57N 39°35' E 013°13'918.8
2017-Jun-28 15:29N 39°40' E 013°03'918.7
2017-Jun-28 14:59N 39°45' E 012°53'5318.7
2017-Jun-28 12:10N 40°12' E 011°54'318.9
2017-Jun-28 12:00N 40°14' E 011°51'1219.0
2017-Jun-28 11:24N 40°20' E 011°38'20918.8
2017-Jun-28 00:16N 42°04' E 007°37'519.3
2017-Jun-28 00:00N 42°07' E 007°31'919.2
2017-Jun-27 23:31N 42°13' E 007°21'1019.2
2017-Jun-27 23:00N 42°18' E 007°11'1019.2
2017-Jun-27 22:31N 42°24' E 007°01'1019.4
2017-Jun-27 22:01N 42°30' E 006°50'1019.3
2017-Jun-27 21:31N 42°36' E 006°40'1019.2
2017-Jun-27 21:01N 42°42' E 006°29'3216.1
2017-Jun-27 19:01N 43°04' E 005°58'018.2
2017-Jun-27 19:00N 43°04' E 005°58'4 7.4
2017-Jun-27 18:29N 43°06' E 005°54'0 0.0
2017-Jun-27 17:59N 43°06' E 005°54'0 0.0
2017-Jun-27 17:29N 43°06' E 005°54'0 0.0
2017-Jun-27 16:56N 43°06' E 005°54'0 0.0
2017-Jun-27 16:29N 43°06' E 005°54'0 0.0
2017-Jun-27 15:59N 43°06' E 005°54'0 0.0
2017-Jun-27 15:28N 43°06' E 005°54'0 0.0
2017-Jun-27 14:58N 43°06' E 005°54'0 0.0
2017-Jun-27 14:28N 43°06' E 005°54'0 0.0
2017-Jun-27 13:30N 43°06' E 005°54'0 0.0
2017-Jun-27 13:00N 43°06' E 005°54'0 0.0
2017-Jun-27 12:30N 43°06' E 005°54'0 0.0
2017-Jun-27 12:00N 43°06' E 005°54'0 0.0
2017-Jun-27 11:29N 43°06' E 005°54'0 0.0
2017-Jun-27 10:59N 43°06' E 005°54'0 0.0
2017-Jun-27 10:29N 43°06' E 005°54'0 0.0
2017-Jun-27 10:00N 43°06' E 005°54'0 0.0
2017-Jun-27 09:30N 43°06' E 005°54'0 0.0
2017-Jun-27 09:00N 43°06' E 005°54'0 0.0
2017-Jun-27 08:30N 43°06' E 005°54'0 0.0
2017-Jun-27 08:01N 43°06' E 005°54'0 0.0
2017-Jun-27 07:30N 43°06' E 005°54'0 0.0
2017-Jun-27 07:01N 43°06' E 005°54'0 0.0
2017-Jun-27 06:31N 43°06' E 005°54'0 0.4
2017-Jun-27 06:00N 43°06' E 005°54'4 7.2
2017-Jun-27 05:30N 43°05' E 005°58'5214.3
2017-Jun-27 01:51N 42°31' E 006°53'719.6
2017-Jun-27 01:30N 42°27' E 007°01'2319.7
2017-Jun-27 00:20N 42°13' E 007°25'619.6
2017-Jun-27 00:00N 42°09' E 007°32'1019.4
2017-Jun-26 23:30N 42°04' E 007°43'11618.4
2017-Jun-26 17:14N 41°09' E 009°59'419.0
2017-Jun-26 17:00N 41°07' E 010°04'1419.2
2017-Jun-26 16:17N 40°60' E 010°20'519.4
2017-Jun-26 16:00N 40°57' E 010°26'3019.4
2017-Jun-26 14:28N 40°41' E 010°60'2819.3
2017-Jun-26 13:02N 40°27' E 011°30'119.1
2017-Jun-26 12:58N 40°26' E 011°32'919.0
2017-Jun-26 12:30N 40°21' E 011°42'7719.3
2017-Jun-26 08:31N 39°41' E 013°07'019.4
2017-Jun-26 08:30N 39°40' E 013°07'1019.6
2017-Jun-26 07:59N 39°35' E 013°18'919.6
2017-Jun-26 07:30N 39°30' E 013°29'1019.6
2017-Jun-26 07:00N 39°25' E 013°39'1019.5
2017-Jun-26 06:30N 39°20' E 013°50'1019.5
2017-Jun-26 05:58N 39°14' E 014°01'1019.4
2017-Jun-26 05:29N 39°09' E 014°12'919.5
2017-Jun-26 05:00N 39°04' E 014°22'1019.5
2017-Jun-26 04:30N 38°59' E 014°33'1019.5
2017-Jun-26 03:59N 38°54' E 014°44'919.3
2017-Jun-26 03:30N 38°49' E 014°54'1019.4
2017-Jun-26 03:00N 38°44' E 015°05'1019.4
2017-Jun-26 02:30N 38°38' E 015°14'1019.1
2017-Jun-26 02:00N 38°32' E 015°23'1019.1
2017-Jun-26 01:30N 38°25' E 015°33'1019.2
2017-Jun-26 01:00N 38°19' E 015°41'714.7
2017-Jun-26 00:30N 38°12' E 015°37'918.6
2017-Jun-26 00:00N 38°03' E 015°36'918.9
2017-Jun-25 23:30N 37°54' E 015°41'1019.5
2017-Jun-25 23:00N 37°52' E 015°53'3719.3
2017-Jun-25 21:05N 37°41' E 016°38'219.1
2017-Jun-25 20:57N 37°40' E 016°41'918.9
2017-Jun-25 20:27N 37°38' E 016°53'918.5
2017-Jun-25 19:57N 37°35' E 017°04'818.1
2017-Jun-25 19:30N 37°33' E 017°14'918.4
2017-Jun-25 19:00N 37°31' E 017°25'918.5
2017-Jun-25 18:30N 37°28' E 017°36'918.5
2017-Jun-25 18:00N 37°26' E 017°47'918.5
2017-Jun-25 17:30N 37°23' E 017°58'3519.0
2017-Jun-25 15:40N 37°13' E 018°41'319.3
2017-Jun-25 15:30N 37°13' E 018°44'24316.7
2017-Jun-25 00:54N 37°14' E 023°50'919.8
2017-Jun-25 00:28N 37°21' E 023°56'919.6
2017-Jun-25 00:00N 37°29' E 024°02'2019.4
2017-Jun-24 23:00N 37°44' E 024°17'13919.5
2017-Jun-24 15:51N 39°45' E 025°46'719.5
2017-Jun-24 15:30N 39°51' E 025°51'21 0.6
2017-Jun-23 06:42N 40°02' E 026°15'314.8
2017-Jun-23 06:28N 40°01' E 026°10'817.6
2017-Jun-23 06:00N 39°58' E 026°00'1118.5
2017-Jun-23 05:25N 39°49' E 025°52'14419.6
2017-Jun-22 22:03N 37°40' E 024°30'2019.4
2017-Jun-22 21:02N 37°24' E 024°16'219.6
2017-Jun-22 20:56N 37°22' E 024°14'819.6
2017-Jun-22 20:31N 37°15' E 024°08'1019.7
2017-Jun-22 20:00N 37°08' E 023°60'1019.8
2017-Jun-22 19:30N 36°60' E 023°52'1020.1
2017-Jun-22 19:00N 36°52' E 023°45'1020.0
2017-Jun-22 18:29N 36°44' E 023°37'15718.5
2017-Jun-22 10:01N 36°49' E 020°22'219.1
2017-Jun-22 09:55N 36°49' E 020°19'5419.6
2017-Jun-22 07:10N 37°04' E 019°14'419.9
2017-Jun-22 06:58N 37°05' E 019°09'919.6
2017-Jun-22 06:30N 37°08' E 018°58'1019.3
2017-Jun-22 05:59N 37°10' E 018°46'13518.7
2017-Jun-21 22:44N 37°47' E 016°02'519.2
2017-Jun-21 22:27N 37°49' E 015°56'1019.5
2017-Jun-21 21:55N 37°53' E 015°43'818.9
2017-Jun-21 21:29N 37°59' E 015°36'918.8
2017-Jun-21 21:00N 38°08' E 015°35'1217.6
2017-Jun-21 20:19N 38°19' E 015°39'619.8
2017-Jun-21 20:00N 38°24' E 015°33'1019.8
2017-Jun-21 19:29N 38°31' E 015°23'1219.8
2017-Jun-21 18:52N 38°39' E 015°11'8519.6
2017-Jun-21 14:31N 39°23' E 013°38'119.6
2017-Jun-21 14:27N 39°24' E 013°36'8119.4
2017-Jun-21 10:16N 40°07' E 012°07'519.5
2017-Jun-21 10:00N 40°10' E 012°01'1019.6
2017-Jun-21 09:30N 40°14' E 011°50'1019.7
2017-Jun-21 09:00N 40°20' E 011°39'1119.8
2017-Jun-21 08:26N 40°26' E 011°26'819.6
2017-Jun-21 08:00N 40°30' E 011°17'1119.5
2017-Jun-21 07:28N 40°35' E 011°05'919.4
2017-Jun-21 07:00N 40°40' E 010°55'2219.3
2017-Jun-21 05:51N 40°52' E 010°30'719.2
2017-Jun-21 05:30N 40°55' E 010°22'1319.5
2017-Jun-21 04:50N 41°02' E 010°07'920.1
2017-Jun-21 04:24N 41°06' E 009°57'820.1
2017-Jun-21 03:59N 41°11' E 009°48'1020.2
2017-Jun-21 03:30N 41°16' E 009°37'1219.9
2017-Jun-21 02:55N 41°21' E 009°23'1519.1
2017-Jun-21 02:07N 41°18' E 009°03'219.3
2017-Jun-21 02:00N 41°18' E 009°01'1019.3
2017-Jun-21 01:30N 41°23' E 008°49'1219.6
2017-Jun-21 00:54N 41°30' E 008°37'820.0
2017-Jun-21 00:30N 41°35' E 008°29'1020.0
2017-Jun-21 00:00N 41°40' E 008°18'1019.9
2017-Jun-20 23:31N 41°46' E 008°07'1019.7
2017-Jun-20 23:00N 41°52' E 007°56'1019.8
2017-Jun-20 22:30N 41°58' E 007°45'3319.8
2017-Jun-20 20:51N 42°18' E 007°11'1019.9
2017-Jun-20 20:20N 42°24' E 006°60'719.9
2017-Jun-20 20:00N 42°28' E 006°53'1019.8
2017-Jun-20 19:30N 42°35' E 006°42'1020.0
2017-Jun-20 19:00N 42°41' E 006°31'1019.6
2017-Jun-20 18:30N 42°46' E 006°21'1019.3
2017-Jun-20 18:00N 42°53' E 006°10'1119.3
2017-Jun-20 17:27N 43°01' E 006°01'614.6
2017-Jun-20 17:00N 43°06' E 005°55'1 2.5
2017-Jun-20 16:28N 43°06' E 005°54'0 0.0
2017-Jun-20 15:58N 43°06' E 005°54'0 0.0
2017-Jun-20 15:30N 43°06' E 005°54'0 0.0
2017-Jun-20 15:00N 43°06' E 005°54'0 0.0
2017-Jun-20 14:30N 43°06' E 005°54'0 0.0
2017-Jun-20 13:30N 43°06' E 005°54'0 0.0
2017-Jun-20 12:59N 43°06' E 005°54'0 0.0
2017-Jun-20 12:29N 43°06' E 005°54'0 0.0
2017-Jun-20 11:59N 43°06' E 005°54'0 0.0
2017-Jun-20 11:29N 43°06' E 005°54'0 0.0
2017-Jun-20 10:58N 43°06' E 005°54'0 0.0
2017-Jun-20 10:28N 43°06' E 005°54'0 0.0
2017-Jun-20 09:55N 43°06' E 005°54'0 0.0
2017-Jun-20 09:28N 43°06' E 005°54'0 0.0
2017-Jun-20 08:58N 43°06' E 005°54'0 0.0
2017-Jun-20 08:30N 43°06' E 005°54'0 0.0
2017-Jun-20 08:00N 43°06' E 005°54'0 0.0
2017-Jun-20 07:27N 43°06' E 005°54'0 0.0
2017-Jun-20 07:00N 43°06' E 005°54'0 0.4
2017-Jun-20 06:30N 43°06' E 005°54'3 6.9
2017-Jun-20 06:00N 43°05' E 005°58'918.0
2017-Jun-20 05:30N 42°58' E 006°05'1519.5
2017-Jun-20 04:43N 42°49' E 006°22'419.3
2017-Jun-20 04:30N 42°46' E 006°27'918.9
2017-Jun-20 04:00N 42°40' E 006°37'1019.0
2017-Jun-20 03:30N 42°35' E 006°47'1119.2
2017-Jun-20 02:56N 42°28' E 006°59'2019.1
2017-Jun-20 01:53N 42°16' E 007°21'2319.1
2017-Jun-20 00:41N 42°03' E 007°46'419.0
2017-Jun-20 00:26N 41°60' E 007°51'819.1
2017-Jun-20 00:00N 41°55' E 007°60'2719.6
2017-Jun-19 22:38N 41°38' E 008°28'2119.3
2017-Jun-19 21:32N 41°26' E 008°51'119.2
2017-Jun-19 21:30N 41°26' E 008°52'1619.0
2017-Jun-19 20:38N 41°18' E 009°12'  
Track history (hours):
 
Tides and Currents Weather Stations Pressure Air Temp Water Temp Dewpoint Dewpoint Depression Visibility Wind Speed Wind Dir Waves Ship Positions

Un Pendik

Last reported at 2017-Jun-29 15:05 UTC. Time now 2017-Jun-29 16:02 UTC.
Position N 36°35' E 021°16'.

Length 193 m; draft 6.4 m.

Type: Ship (hazmat cat A). MMSI: 271000792.

Date/timePositionNaut miles runAvg speedWind from/ knotsBaromVisibWave heightAir tempDewpointWater temp
2017-Jun-29 15:05N 36°35' E 021°16'119.5
2017-Jun-29 15:00N 36°35' E 021°14'2019.5
2017-Jun-29 14:00N 36°40' E 020°51'1019.4
2017-Jun-29 13:30N 36°43' E 020°39'917.6
2017-Jun-29 13:00N 36°47' E 020°29'1013.1
2017-Jun-29 12:14N 36°50' E 020°17'519.7
2017-Jun-29 12:00N 36°51' E 020°12'1020.1
2017-Jun-29 11:30N 36°54' E 019°60'1919.9
2017-Jun-29 10:33N 36°59' E 019°37'119.9
2017-Jun-29 10:30N 36°59' E 019°36'1019.8
2017-Jun-29 09:59N 37°02' E 019°23'1019.7
2017-Jun-29 09:29N 37°05' E 019°11'1519.8
2017-Jun-29 08:44N 37°09' E 018°53'519.7
2017-Jun-29 08:30N 37°10' E 018°48'1419.7
2017-Jun-29 07:47N 37°14' E 018°31'619.6
2017-Jun-29 07:30N 37°15' E 018°24'3719.5
2017-Jun-29 05:37N 37°25' E 017°40'219.5
2017-Jun-29 05:30N 37°26' E 017°37'1319.6
2017-Jun-29 04:50N 37°30' E 017°21'6419.8
2017-Jun-29 01:37N 37°47' E 016°04'219.4
2017-Jun-29 01:30N 37°48' E 016°01'1019.1
2017-Jun-29 01:00N 37°51' E 015°50'1018.5
2017-Jun-29 00:29N 37°56' E 015°40'918.5
2017-Jun-29 00:00N 38°04' E 015°35'917.6
2017-Jun-28 23:30N 38°13' E 015°36'713.6
2017-Jun-28 23:00N 38°19' E 015°39'1019.2
2017-Jun-28 22:30N 38°26' E 015°30'1019.8
2017-Jun-28 22:00N 38°32' E 015°21'1019.6
2017-Jun-28 21:30N 38°39' E 015°11'1019.4
2017-Jun-28 21:00N 38°44' E 015°01'1019.7
2017-Jun-28 20:30N 38°50' E 014°50'1019.9
2017-Jun-28 20:00N 38°54' E 014°40'6419.4
2017-Jun-28 16:42N 39°28' E 013°29'419.1
2017-Jun-28 16:30N 39°30' E 013°25'1019.0
2017-Jun-28 15:57N 39°35' E 013°13'918.8
2017-Jun-28 15:29N 39°40' E 013°03'918.7
2017-Jun-28 14:59N 39°45' E 012°53'5318.7
2017-Jun-28 12:10N 40°12' E 011°54'318.9
2017-Jun-28 12:00N 40°14' E 011°51'1219.0
2017-Jun-28 11:24N 40°20' E 011°38'20918.8
2017-Jun-28 00:16N 42°04' E 007°37'519.3
2017-Jun-28 00:00N 42°07' E 007°31'919.2
2017-Jun-27 23:31N 42°13' E 007°21'1019.2
2017-Jun-27 23:00N 42°18' E 007°11'1019.2
2017-Jun-27 22:31N 42°24' E 007°01'1019.4
2017-Jun-27 22:01N 42°30' E 006°50'1019.3
2017-Jun-27 21:31N 42°36' E 006°40'1019.2
2017-Jun-27 21:01N 42°42' E 006°29'3216.1
2017-Jun-27 19:01N 43°04' E 005°58'018.2
2017-Jun-27 19:00N 43°04' E 005°58'4 7.4
2017-Jun-27 18:29N 43°06' E 005°54'0 0.0
2017-Jun-27 17:59N 43°06' E 005°54'0 0.0
2017-Jun-27 17:29N 43°06' E 005°54'0 0.0
2017-Jun-27 16:56N 43°06' E 005°54'0 0.0
2017-Jun-27 16:29N 43°06' E 005°54'0 0.0
2017-Jun-27 15:59N 43°06' E 005°54'0 0.0
2017-Jun-27 15:28N 43°06' E 005°54'0 0.0
2017-Jun-27 14:58N 43°06' E 005°54'0 0.0
2017-Jun-27 14:28N 43°06' E 005°54'0 0.0
2017-Jun-27 13:30N 43°06' E 005°54'0 0.0
2017-Jun-27 13:00N 43°06' E 005°54'0 0.0
2017-Jun-27 12:30N 43°06' E 005°54'0 0.0
2017-Jun-27 12:00N 43°06' E 005°54'0 0.0
2017-Jun-27 11:29N 43°06' E 005°54'0 0.0
2017-Jun-27 10:59N 43°06' E 005°54'0 0.0
2017-Jun-27 10:29N 43°06' E 005°54'0 0.0
2017-Jun-27 10:00N 43°06' E 005°54'0 0.0
2017-Jun-27 09:30N 43°06' E 005°54'0 0.0
2017-Jun-27 09:00N 43°06' E 005°54'0 0.0
2017-Jun-27 08:30N 43°06' E 005°54'0 0.0
2017-Jun-27 08:01N 43°06' E 005°54'0 0.0
2017-Jun-27 07:30N 43°06' E 005°54'0 0.0
2017-Jun-27 07:01N 43°06' E 005°54'0 0.0
2017-Jun-27 06:31N 43°06' E 005°54'0 0.4
2017-Jun-27 06:00N 43°06' E 005°54'4 7.2
2017-Jun-27 05:30N 43°05' E 005°58'5214.3
2017-Jun-27 01:51N 42°31' E 006°53'719.6
2017-Jun-27 01:30N 42°27' E 007°01'2319.7
2017-Jun-27 00:20N 42°13' E 007°25'619.6
2017-Jun-27 00:00N 42°09' E 007°32'1019.4
2017-Jun-26 23:30N 42°04' E 007°43'11618.4
2017-Jun-26 17:14N 41°09' E 009°59'419.0
2017-Jun-26 17:00N 41°07' E 010°04'1419.2
2017-Jun-26 16:17N 40°60' E 010°20'519.4
2017-Jun-26 16:00N 40°57' E 010°26'3019.4
2017-Jun-26 14:28N 40°41' E 010°60'2819.3
2017-Jun-26 13:02N 40°27' E 011°30'119.1
2017-Jun-26 12:58N 40°26' E 011°32'919.0
2017-Jun-26 12:30N 40°21' E 011°42'7719.3
2017-Jun-26 08:31N 39°41' E 013°07'019.4
2017-Jun-26 08:30N 39°40' E 013°07'1019.6
2017-Jun-26 07:59N 39°35' E 013°18'919.6
2017-Jun-26 07:30N 39°30' E 013°29'1019.6
2017-Jun-26 07:00N 39°25' E 013°39'1019.5
2017-Jun-26 06:30N 39°20' E 013°50'1019.5
2017-Jun-26 05:58N 39°14' E 014°01'1019.4
2017-Jun-26 05:29N 39°09' E 014°12'919.5
2017-Jun-26 05:00N 39°04' E 014°22'1019.5
2017-Jun-26 04:30N 38°59' E 014°33'1019.5
2017-Jun-26 03:59N 38°54' E 014°44'919.3
2017-Jun-26 03:30N 38°49' E 014°54'1019.4
2017-Jun-26 03:00N 38°44' E 015°05'1019.4
2017-Jun-26 02:30N 38°38' E 015°14'1019.1
2017-Jun-26 02:00N 38°32' E 015°23'1019.1
2017-Jun-26 01:30N 38°25' E 015°33'1019.2
2017-Jun-26 01:00N 38°19' E 015°41'714.7
2017-Jun-26 00:30N 38°12' E 015°37'918.6
2017-Jun-26 00:00N 38°03' E 015°36'918.9
2017-Jun-25 23:30N 37°54' E 015°41'1019.5
2017-Jun-25 23:00N 37°52' E 015°53'3719.3
2017-Jun-25 21:05N 37°41' E 016°38'219.1
2017-Jun-25 20:57N 37°40' E 016°41'918.9
2017-Jun-25 20:27N 37°38' E 016°53'918.5
2017-Jun-25 19:57N 37°35' E 017°04'818.1
2017-Jun-25 19:30N 37°33' E 017°14'918.4
2017-Jun-25 19:00N 37°31' E 017°25'918.5
2017-Jun-25 18:30N 37°28' E 017°36'918.5
2017-Jun-25 18:00N 37°26' E 017°47'918.5
2017-Jun-25 17:30N 37°23' E 017°58'3519.0
2017-Jun-25 15:40N 37°13' E 018°41'319.3
2017-Jun-25 15:30N 37°13' E 018°44'24316.7
2017-Jun-25 00:54N 37°14' E 023°50'919.8
2017-Jun-25 00:28N 37°21' E 023°56'919.6
2017-Jun-25 00:00N 37°29' E 024°02'2019.4
2017-Jun-24 23:00N 37°44' E 024°17'13919.5
2017-Jun-24 15:51N 39°45' E 025°46'719.5
2017-Jun-24 15:30N 39°51' E 025°51'21 0.6
2017-Jun-23 06:42N 40°02' E 026°15'314.8
2017-Jun-23 06:28N 40°01' E 026°10'817.6
2017-Jun-23 06:00N 39°58' E 026°00'1118.5
2017-Jun-23 05:25N 39°49' E 025°52'14419.6
2017-Jun-22 22:03N 37°40' E 024°30'2019.4
2017-Jun-22 21:02N 37°24' E 024°16'219.6
2017-Jun-22 20:56N 37°22' E 024°14'819.6
2017-Jun-22 20:31N 37°15' E 024°08'1019.7
2017-Jun-22 20:00N 37°08' E 023°60'1019.8
2017-Jun-22 19:30N 36°60' E 023°52'1020.1
2017-Jun-22 19:00N 36°52' E 023°45'1020.0
2017-Jun-22 18:29N 36°44' E 023°37'15718.5
2017-Jun-22 10:01N 36°49' E 020°22'219.1
2017-Jun-22 09:55N 36°49' E 020°19'5419.6
2017-Jun-22 07:10N 37°04' E 019°14'419.9
2017-Jun-22 06:58N 37°05' E 019°09'919.6
2017-Jun-22 06:30N 37°08' E 018°58'1019.3
2017-Jun-22 05:59N 37°10' E 018°46'13518.7
2017-Jun-21 22:44N 37°47' E 016°02'519.2
2017-Jun-21 22:27N 37°49' E 015°56'1019.5
2017-Jun-21 21:55N 37°53' E 015°43'818.9
2017-Jun-21 21:29N 37°59' E 015°36'918.8
2017-Jun-21 21:00N 38°08' E 015°35'1217.6
2017-Jun-21 20:19N 38°19' E 015°39'619.8
2017-Jun-21 20:00N 38°24' E 015°33'1019.8
2017-Jun-21 19:29N 38°31' E 015°23'1219.8
2017-Jun-21 18:52N 38°39' E 015°11'8519.6
2017-Jun-21 14:31N 39°23' E 013°38'119.6
2017-Jun-21 14:27N 39°24' E 013°36'8119.4
2017-Jun-21 10:16N 40°07' E 012°07'519.5
2017-Jun-21 10:00N 40°10' E 012°01'1019.6
2017-Jun-21 09:30N 40°14' E 011°50'1019.7
2017-Jun-21 09:00N 40°20' E 011°39'1119.8
2017-Jun-21 08:26N 40°26' E 011°26'819.6
2017-Jun-21 08:00N 40°30' E 011°17'1119.5
2017-Jun-21 07:28N 40°35' E 011°05'919.4
2017-Jun-21 07:00N 40°40' E 010°55'2219.3
2017-Jun-21 05:51N 40°52' E 010°30'719.2
2017-Jun-21 05:30N 40°55' E 010°22'1319.5
2017-Jun-21 04:50N 41°02' E 010°07'920.1
2017-Jun-21 04:24N 41°06' E 009°57'820.1
2017-Jun-21 03:59N 41°11' E 009°48'1020.2
2017-Jun-21 03:30N 41°16' E 009°37'1219.9
2017-Jun-21 02:55N 41°21' E 009°23'1519.1
2017-Jun-21 02:07N 41°18' E 009°03'219.3
2017-Jun-21 02:00N 41°18' E 009°01'1019.3
2017-Jun-21 01:30N 41°23' E 008°49'1219.6
2017-Jun-21 00:54N 41°30' E 008°37'820.0
2017-Jun-21 00:30N 41°35' E 008°29'1020.0
2017-Jun-21 00:00N 41°40' E 008°18'1019.9
2017-Jun-20 23:31N 41°46' E 008°07'1019.7
2017-Jun-20 23:00N 41°52' E 007°56'1019.8
2017-Jun-20 22:30N 41°58' E 007°45'3319.8
2017-Jun-20 20:51N 42°18' E 007°11'1019.9
2017-Jun-20 20:20N 42°24' E 006°60'719.9
2017-Jun-20 20:00N 42°28' E 006°53'1019.8
2017-Jun-20 19:30N 42°35' E 006°42'1020.0
2017-Jun-20 19:00N 42°41' E 006°31'1019.6
2017-Jun-20 18:30N 42°46' E 006°21'1019.3
2017-Jun-20 18:00N 42°53' E 006°10'1119.3
2017-Jun-20 17:27N 43°01' E 006°01'614.6
2017-Jun-20 17:00N 43°06' E 005°55'1 2.5
2017-Jun-20 16:28N 43°06' E 005°54'0 0.0
2017-Jun-20 15:58N 43°06' E 005°54'0 0.0
2017-Jun-20 15:30N 43°06' E 005°54'0 0.0
2017-Jun-20 15:00N 43°06' E 005°54'0 0.0
2017-Jun-20 14:30N 43°06' E 005°54'0 0.0
2017-Jun-20 13:30N 43°06' E 005°54'0 0.0
2017-Jun-20 12:59N 43°06' E 005°54'0 0.0
2017-Jun-20 12:29N 43°06' E 005°54'0 0.0
2017-Jun-20 11:59N 43°06' E 005°54'0 0.0
2017-Jun-20 11:29N 43°06' E 005°54'0 0.0
2017-Jun-20 10:58N 43°06' E 005°54'0 0.0
2017-Jun-20 10:28N 43°06' E 005°54'0 0.0
2017-Jun-20 09:55N 43°06' E 005°54'0 0.0
2017-Jun-20 09:28N 43°06' E 005°54'0 0.0
2017-Jun-20 08:58N 43°06' E 005°54'0 0.0
2017-Jun-20 08:30N 43°06' E 005°54'0 0.0
2017-Jun-20 08:00N 43°06' E 005°54'0 0.0
2017-Jun-20 07:27N 43°06' E 005°54'0 0.0
2017-Jun-20 07:00N 43°06' E 005°54'0 0.4
2017-Jun-20 06:30N 43°06' E 005°54'3 6.9
2017-Jun-20 06:00N 43°05' E 005°58'918.0
2017-Jun-20 05:30N 42°58' E 006°05'1519.5
2017-Jun-20 04:43N 42°49' E 006°22'419.3
2017-Jun-20 04:30N 42°46' E 006°27'918.9
2017-Jun-20 04:00N 42°40' E 006°37'1019.0
2017-Jun-20 03:30N 42°35' E 006°47'1119.2
2017-Jun-20 02:56N 42°28' E 006°59'2019.1
2017-Jun-20 01:53N 42°16' E 007°21'2319.1
2017-Jun-20 00:41N 42°03' E 007°46'419.0
2017-Jun-20 00:26N 41°60' E 007°51'819.1
2017-Jun-20 00:00N 41°55' E 007°60'2719.6
2017-Jun-19 22:38N 41°38' E 008°28'2119.3
2017-Jun-19 21:32N 41°26' E 008°51'119.2
2017-Jun-19 21:30N 41°26' E 008°52'1619.0
2017-Jun-19 20:38N 41°18' E 009°12'  

Dump ship's entire track history